LPPD/PDL METAR and TAF weather

Enter ICAO airport designator
Station Type Date Time Source
LPPD METAR 2019/04/25 07:30 UTC NOAA

LPPD 250730Z 33005KT 9999 FEW018 SCT035 13/07 Q1023


Station Type Date Time Source
LPPD Decoded METAR 2019/04/25 07:30 UTC NOAA

Ponta Delgada / Nordela Acores , Portugal (LPPD) 37-44N 025-42W 72M
Apr 25, 2019 - 03:30 AM EDT / 2019.04.25 0730 UTC
Wind: from the NNW (330 degrees) at 6 MPH (5 KT):0
Visibility: greater than 7 mile(s):0
Sky conditions: partly cloudy
Temperature: 55 F (13 C)
Dew Point: 44 F (7 C)
Relative Humidity: 66%
Pressure (altimeter): 30.21 in. Hg (1023 hPa)
ob: LPPD 250730Z 33005KT 9999 FEW018 SCT035 13/07 Q1023
cycle: 7

Station Type Date Time Source
LPPD TAF 2019/04/25 06:18 UTC NOAA

TAF LPPD 250500Z 2506/2606 VRB05KT 9999 FEW025
TEMPO 2506/2606 FEW018 BKN035

Example: see airport list